Snake Valley, Nevada Weather observations

Data are for 10 minute period ending at time listed.
 Day   Time   Solar   Ave.   Ave.  Ave.  Vector  Max.   Baro.   Total    
  of    of     Rad.   Air    Rel.  Wind   Wind   Wind  Press.  Precip.   
Year   Day            Temp.  Hum.  Speed  Dir.   Gust                    
2016   (PST)  Kw/m2    F      %     mph   deg.    mph    mb.     in.     
-------------------------------------------------------------------------
  36   11:50   0.63   30.5    59    0.2   218     1.3   855.3    0.00 
  36   12:00   0.62   29.6    60    0.8   250     2.3   855.2    0.00 
  36   12:10   0.63   27.5    69    1.9   282     2.4   855.0    0.00 
  36   12:20   0.62   28.7    67    1.0   270     1.8   855.0    0.00 
  36   12:30   0.61   33.6    56    0.0   263     0.5   855.0    0.00 
  36   12:40   0.61   35.5    52    0.3   160     1.1   854.9    0.00 
  36   12:50   0.61   34.9    53    0.9   159     1.6   854.9    0.00 
  36   13:00   0.60   32.2    60    0.9   143     1.5   854.9    0.00 
  36   13:10   0.58   34.9    54    1.2   142     2.2   854.8    0.00 
  36   13:20   0.57   30.5    66    1.7   114     2.5   854.8    0.00 
  36   13:30   0.55   31.5    62    1.3   106     2.0   854.8    0.00 
  36   13:40   0.54   31.4    66    1.3   107     2.0   854.8    0.00 
  36   13:50   0.50   32.8    67    0.5   109     1.2   854.8    0.00 
  36   14:00   0.50   35.5    60    0.0     0     0.0   854.8    0.00 
  36   14:10   0.49   33.2    62    1.5   112     2.0   854.8    0.00 
  36   14:20   0.46   31.4    70    2.0   122     2.6   854.8    0.00 
  36   14:30   0.43   30.4    74    2.5   118     3.1   854.7    0.00 
  36   14:40   0.41   29.9    75    2.7   113     3.4   854.6    0.00 
  36   14:50   0.38   29.5    75    2.8   112     3.2   854.6    0.00 
  36   15:00   0.35   29.1    76    3.1   114     3.4   854.6    0.00 
  36   15:10   0.33   28.6    76    3.0   111     3.5   854.5    0.00 
  36   15:20   0.30   26.8    79    4.3   108     5.1   854.5    0.00 
  36   15:30   0.27   26.3    81    3.5   124     4.2   854.4    0.00 
  36   15:40   0.24   27.7    79    2.2   142     3.0   854.4    0.00 
  36   15:50   0.20   27.3    77    2.7   109     3.2   854.4    0.00 
  36   16:00   0.17   26.8    78    2.2   115     2.8   854.3    0.00 
  36   16:10   0.14   26.6    78    2.0   104     2.6   854.2    0.00 
  36   16:20   0.10   26.7    78    2.6    59     4.6   854.2    0.00 
  36   16:30   0.07   27.6    79    2.1    46     3.4   854.1    0.00 
  36   16:40   0.02   26.4    79    2.0    40     3.0   854.1    0.00 
  36   16:50   0.01   25.4    81    1.4    23     2.4   854.1    0.00 
  36   17:00   0.01   17.4    79    5.6   293     7.3   854.1    0.00 
  36   17:10   0.01   14.0    90    7.2   302     7.8   854.1    0.00 
  36   17:20   0.00   13.7    90    5.8   295     6.6   854.3    0.00 
  36   17:30   0.00   11.9    90    7.0   286     8.0   854.4    0.00 
  36   17:40   0.00   11.6    88    6.8   298     8.0   854.5    0.00 
  36   17:50   0.00   13.5    92    5.0   311     5.5   854.5    0.00 
  36   18:00   0.00   11.4    88    5.6   296     6.6   854.6    0.00 
  36   18:10   0.00   10.9    89    6.3   308     7.1   854.6    0.00 
  36   18:20   0.00   13.0    88    4.9   292     5.6   854.8    0.00 
  36   18:30   0.00   11.8    89    3.2   273     5.6   854.9    0.00 
  36   18:40   0.00    9.5    88    2.0   302     2.9   855.0    0.00 
  36   18:50   0.00   11.1    90    1.9   259     2.8   855.0    0.00 
  36   19:00   0.00   11.4    91    3.5   274     4.5   855.0    0.00 
  36   19:10   0.00   13.9    92    3.4   272     4.3   855.0    0.00 
  36   19:20   0.00   13.0    89    3.7   271     4.4   855.1    0.00 
  36   19:30   0.00   13.4    89    3.7   279     6.8   855.1    0.00 
  36   19:40   0.00   11.7    91    4.1   304     6.6   855.0    0.00 
  36   19:50   0.00   12.0    89    4.1   297     5.3   855.1    0.00 
  36   20:00   0.00    8.6    87    4.9   294     6.6   855.0    0.00 
  36   20:10   0.00    7.3    90    6.6   300     8.1   854.9    0.00 
  36   20:20   0.00    8.9    90    5.5   305     7.6   855.1    0.00 
  36   20:30   0.00    9.6    90    4.8   303     6.1   855.0    0.00 
  36   20:40   0.00    7.4    88    6.9   293     7.6   855.1    0.00 
  36   20:50   0.00    6.5    87    6.0   283     7.2   855.1    0.00 
  36   21:00   0.00    6.7    90    3.1   125     4.2   855.3    0.00 
  36   21:10   0.00    8.5    91    3.1   132     3.7   855.3    0.00 
  36   21:20   0.00    7.5    88    1.9   121     3.3   855.3    0.00 
  36   21:30   0.00    6.7    89    0.1   142     1.0   855.3    0.00 
  36   21:40   0.00    7.6    90    0.8   213     1.4   855.3    0.00 
  36   21:50   0.00    8.3    89    1.6   243     5.6   855.3    0.00 
  36   22:00   0.00    5.8    88    5.8   306     6.8   855.2    0.00 
  36   22:10   0.00    4.7    89    5.3   313     6.1   855.0    0.00 
  36   22:20   0.00    6.5    90    5.3   311     6.2   855.0    0.00 
  36   22:30   0.00    4.7    88    3.2   179     5.8   855.1    0.00 
  36   22:40   0.00    6.7    92    1.5   175     3.4   855.1    0.00 
  36   22:50   0.00    7.2    90    0.1   229     0.6   855.1    0.00 
  36   23:00   0.00    8.2    90    0.0     0     0.0   855.1    0.00 
  36   23:10   0.00    7.7    90    0.1   280     0.8   855.2    0.00 
  36   23:20   0.00    8.3    90    0.5   280     1.2   855.1    0.00 
  36   23:30   0.00    8.9    90    0.4   280     1.5   854.9    0.00 
  36   23:40   0.00    4.6    86    0.7   246     1.6   854.9    0.00 
  36   23:50   0.00    2.0    88    1.9   221     2.6   854.9    0.00 
  37    0:00   0.00    2.9    90    1.6   284     2.8   854.9    0.00 
  37    0:10   0.00    5.0    90    0.8   322     1.8   854.9    0.00 
  37    0:20   0.00    4.1    88    0.4    28     1.7   854.8    0.00 
  37    0:30   0.00    3.8    90    2.6   268     3.3   854.8    0.00 
  37    0:40   0.00    3.6    88    2.7   266     3.1   854.7    0.00 
  37    0:50   0.00    1.3    87    2.2   252     3.6   854.6    0.00 
  37    1:00   0.00    2.2    89    1.2   250     3.7   854.6    0.00 
  37    1:10   0.00    3.5    89    0.1   261     0.7   854.6    0.00 
  37    1:20   0.00    4.9    90    1.4   144     2.9   854.7    0.00 
  37    1:30   0.00    4.5    87    0.4   260     1.8   854.8    0.00 
  37    1:40   0.00    2.9    87    1.2   286     1.9   854.7    0.00 
  37    1:50   0.00    1.4    88    1.9   279     2.4   854.6    0.00 
  37    2:00   0.00    2.7    88    1.3   301     2.0   854.6    0.00 
  37    2:10   0.00    3.4    88    2.0     5     2.7   854.9    0.00 
  37    2:20   0.00    3.4    89    1.7    46     2.5   854.8    0.00 
  37    2:30   0.00    5.4    89    2.7    91     3.7   854.6    0.00 
  37    2:40   0.00    2.8    86    0.8   169     2.6   854.5    0.00 
  37    2:50   0.00   -0.7    84    2.4   239     3.4   854.4    0.00 
  37    3:00   0.00   -0.8    86    2.0   182     2.7   854.4    0.00 
  37    3:10   0.00    1.9    88    0.7   224     2.0   854.2    0.00 
  37    3:20   0.00   -1.3    84    1.2   312     2.9   854.1    0.00 
  37    3:30   0.00   -1.1    86    0.0     0     0.0   854.1    0.00 
  37    3:40   0.00   -0.8    85    0.2   285     1.4   854.1    0.00 
  37    3:50   0.00    0.3    87    0.1   296     0.7   854.1    0.00 
  37    4:00   0.00    1.3    86    0.3   256     2.2   854.2    0.00 
  37    4:10   0.00    1.5    86    0.7   141     1.8   854.4    0.00 
  37    4:20   0.00    2.1    87    1.1   125     2.6   854.4    0.00 
  37    4:30   0.00    2.5    87    0.8   113     2.3   854.3    0.00 
  37    4:40   0.00    2.1    86    1.9   311     5.6   854.1    0.00 
  37    4:50   0.00   -2.6    82    3.4   280     5.0   853.9    0.00 
  37    5:00   0.00   -2.8    86    1.9   155     3.3   854.1    0.00 
  37    5:10   0.00    0.8    88    1.0   154     2.8   854.1    0.00 
  37    5:20   0.00    4.0    90    3.2   150     5.0   854.3    0.00 
  37    5:30   0.00    5.4    87    1.5   240     3.3   854.4    0.00 
  37    5:40   0.00    5.8    89    0.8   148     1.6   854.1    0.00 
  37    5:50   0.00    2.3    83    2.3   276     5.7   854.2    0.00 
  37    6:00   0.00   -0.3    85    0.6   165     2.6   854.2    0.00 
  37    6:10   0.00    1.5    89    2.5   306     3.6   854.3    0.00 
  37    6:20   0.00    3.7    88    3.6   288     5.1   854.1    0.00 
  37    6:30   0.00    3.1    87    2.7   295     4.2   854.2    0.00 
  37    6:40   0.01    0.8    85    1.6   174     3.0   854.2    0.00 
  37    6:50   0.02    1.0    86    2.5   106     3.4   854.4    0.00 
  37    7:00   0.04    1.4    86    2.6   167     3.4   854.4    0.00 
  37    7:10   0.06    2.0    87    1.4   165     3.7   854.4    0.00 
  37    7:20   0.08    4.5    87    1.9   213     3.1   854.5    0.00 
  37    7:30   0.11    4.5    85    3.7   321     4.8   854.6    0.00 
  37    7:40   0.13    5.6    86    2.6    12     3.2   854.6    0.00 
  37    7:50   0.16    7.1    86    1.9   356     3.4   854.6    0.00 
  37    8:00   0.20    7.8    87    0.9   316     1.8   854.7    0.00 
  37    8:10   0.23   10.1    86    2.0   182     3.0   854.6    0.00 
  37    8:20   0.28    9.8    87    2.8   164     5.0   854.5    0.00 
  37    8:30   0.31   13.9    87    6.8   162    11.0   854.4    0.00 
  37    8:40   0.32   14.3    84    6.2   178     9.5   854.5    0.00 
  37    8:50   0.32   14.1    84    1.7   248     3.8   854.7    0.00 
  37    9:00   0.31   16.0    86    0.5   200     1.9   854.7    0.00 
  37    9:10   0.34   15.0    80    3.2   208     7.5   854.8    0.00 
  37    9:20   0.32   15.2    80    8.0   157    10.1   854.7    0.00 
  37    9:30   0.38   16.7    79    5.0   159     7.4   854.8    0.00 
  37    9:40   0.45   19.5    74    3.1   184     3.9   854.8    0.00 
  37    9:50   0.47   17.9    76    1.3   264     2.9   854.9    0.00 
  37   10:00   0.50   21.0    71    0.4   272     1.5   854.8    0.00 
  37   10:10   0.53   21.7    67    2.8    65     4.2   854.8    0.00 
  37   10:20   0.52   20.0    74    3.9    66     4.9   854.8    0.00 
  37   10:30   0.54   21.3    73    4.1    64     5.3   854.8    0.00 
  37   10:40   0.57   22.5    73    2.4   140     4.2   854.7    0.00 
  37   10:50   0.58   24.0    68    2.4   199     3.8   854.5    0.00 
  37   11:00   0.59   23.6    69    2.8   214     4.2   854.1    0.00 
  37   11:10   0.60   25.6    67    1.0   238     2.0   853.9    0.00 
  37   11:20   0.61   30.0    60    0.6    28     1.7   853.7    0.00 
  37   11:30   0.62   32.8    55    1.4    27     3.1   853.4    0.00 
  37   11:40   0.63   29.4    64    2.2    77     2.9   853.4    0.00 

Return to Snake Valley graphs page.


Western Regional Climate Center,wrcc@dri.edu